sensor_id;sensor_type;location;lat;lon;timestamp;P1;P2;P0
84223;PMS5003;74353;51.208;0.304;2023-12-07T00:01:03;35;29;
84223;PMS5003;74353;51.208;0.304;2023-12-07T00:03:30;48;42;
84223;PMS5003;74353;51.208;0.304;2023-12-07T00:05:58;21;21;
84223;PMS5003;74353;51.208;0.304;2023-12-07T00:08:23;42;39;
84223;PMS5003;74353;51.208;0.304;2023-12-07T00:10:49;35;32;
84223;PMS5003;74353;51.208;0.304;2023-12-07T00:13:17;15;15;
84223;PMS5003;74353;51.208;0.304;2023-12-07T00:15:43;28;28;
84223;PMS5003;74353;51.208;0.304;2023-12-07T00:18:10;24;24;
84223;PMS5003;74353;51.208;0.304;2023-12-07T00:20:37;22;22;
84223;PMS5003;74353;51.208;0.304;2023-12-07T00:23:02;32;30;
84223;PMS5003;74353;51.208;0.304;2023-12-07T00:25:27;4;4;
84223;PMS5003;74353;51.208;0.304;2023-12-07T00:27:53;31;31;
84223;PMS5003;74353;51.208;0.304;2023-12-07T00:30:19;32;26;
84223;PMS5003;74353;51.208;0.304;2023-12-07T00:32:44;37;32;
84223;PMS5003;74353;51.208;0.304;2023-12-07T00:35:10;29;29;
84223;PMS5003;74353;51.208;0.304;2023-12-07T00:40:04;27;22;
84223;PMS5003;74353;51.208;0.304;2023-12-07T00:42:29;23;23;
84223;PMS5003;74353;51.208;0.304;2023-12-07T00:44:56;21;21;
84223;PMS5003;74353;51.208;0.304;2023-12-07T00:47:25;30;30;
84223;PMS5003;74353;51.208;0.304;2023-12-07T00:49:52;22;22;
84223;PMS5003;74353;51.208;0.304;2023-12-07T00:52:18;22;22;
84223;PMS5003;74353;51.208;0.304;2023-12-07T00:54:45;14;8;
84223;PMS5003;74353;51.208;0.304;2023-12-07T00:57:10;25;25;
84223;PMS5003;74353;51.208;0.304;2023-12-07T00:59:35;21;21;
84223;PMS5003;74353;51.208;0.304;2023-12-07T01:02:03;14;14;
84223;PMS5003;74353;51.208;0.304;2023-12-07T01:04:28;22;22;
84223;PMS5003;74353;51.208;0.304;2023-12-07T01:06:54;30;27;
84223;PMS5003;74353;51.208;0.304;2023-12-07T01:09:20;23;23;
84223;PMS5003;74353;51.208;0.304;2023-12-07T01:11:46;20;20;
84223;PMS5003;74353;51.208;0.304;2023-12-07T01:14:13;26;20;
84223;PMS5003;74353;51.208;0.304;2023-12-07T01:16:40;23;23;
84223;PMS5003;74353;51.208;0.304;2023-12-07T01:19:12;17;7;
84223;PMS5003;74353;51.208;0.304;2023-12-07T01:21:32;19;19;
84223;PMS5003;74353;51.208;0.304;2023-12-07T01:26:24;13;13;
84223;PMS5003;74353;51.208;0.304;2023-12-07T01:28:52;16;12;
84223;PMS5003;74353;51.208;0.304;2023-12-07T01:31:18;24;24;
84223;PMS5003;74353;51.208;0.304;2023-12-07T01:33:43;23;21;
84223;PMS5003;74353;51.208;0.304;2023-12-07T01:36:09;17;17;
84223;PMS5003;74353;51.208;0.304;2023-12-07T01:38:34;18;18;
84223;PMS5003;74353;51.208;0.304;2023-12-07T01:41:00;18;17;
84223;PMS5003;74353;51.208;0.304;2023-12-07T01:43:28;18;18;
84223;PMS5003;74353;51.208;0.304;2023-12-07T01:45:55;26;26;
84223;PMS5003;74353;51.208;0.304;2023-12-07T01:48:20;11;11;
84223;PMS5003;74353;51.208;0.304;2023-12-07T01:50:46;15;15;
84223;PMS5003;74353;51.208;0.304;2023-12-07T01:53:12;14;14;
84223;PMS5003;74353;51.208;0.304;2023-12-07T01:55:38;12;12;
84223;PMS5003;74353;51.208;0.304;2023-12-07T01:58:05;15;12;
84223;PMS5003;74353;51.208;0.304;2023-12-07T02:00:31;16;16;
84223;PMS5003;74353;51.208;0.304;2023-12-07T02:02:58;19;19;
84223;PMS5003;74353;51.208;0.304;2023-12-07T02:05:32;19;16;
84223;PMS5003;74353;51.208;0.304;2023-12-07T02:07:52;20;18;
84223;PMS5003;74353;51.208;0.304;2023-12-07T02:10:19;8;8;
84223;PMS5003;74353;51.208;0.304;2023-12-07T02:12:44;17;15;
84223;PMS5003;74353;51.208;0.304;2023-12-07T02:15:10;7;7;
84223;PMS5003;74353;51.208;0.304;2023-12-07T02:17:38;16;13;
84223;PMS5003;74353;51.208;0.304;2023-12-07T02:20:08;10;10;
84223;PMS5003;74353;51.208;0.304;2023-12-07T02:22:34;15;15;
84223;PMS5003;74353;51.208;0.304;2023-12-07T02:27:34;7;7;
84223;PMS5003;74353;51.208;0.304;2023-12-07T02:29:52;14;13;
84223;PMS5003;74353;51.208;0.304;2023-12-07T02:32:18;7;7;
84223;PMS5003;74353;51.208;0.304;2023-12-07T02:34:44;11;10;
84223;PMS5003;74353;51.208;0.304;2023-12-07T02:37:09;10;10;
84223;PMS5003;74353;51.208;0.304;2023-12-07T02:39:35;17;17;
84223;PMS5003;74353;51.208;0.304;2023-12-07T02:42:02;9;9;
84223;PMS5003;74353;51.208;0.304;2023-12-07T02:44:30;8;8;
84223;PMS5003;74353;51.208;0.304;2023-12-07T02:47:00;12;12;
84223;PMS5003;74353;51.208;0.304;2023-12-07T02:49:32;6;6;
84223;PMS5003;74353;51.208;0.304;2023-12-07T02:51:54;7;7;
84223;PMS5003;74353;51.208;0.304;2023-12-07T02:54:19;7;7;
84223;PMS5003;74353;51.208;0.304;2023-12-07T02:56:45;12;11;
84223;PMS5003;74353;51.208;0.304;2023-12-07T02:59:10;12;12;
84223;PMS5003;74353;51.208;0.304;2023-12-07T03:01:37;18;11;
84223;PMS5003;74353;51.208;0.304;2023-12-07T03:04:03;8;8;
84223;PMS5003;74353;51.208;0.304;2023-12-07T03:06:29;8;8;
84223;PMS5003;74353;51.208;0.304;2023-12-07T03:08:54;10;10;
84223;PMS5003;74353;51.208;0.304;2023-12-07T03:11:24;5;5;
84223;PMS5003;74353;51.208;0.304;2023-12-07T03:13:47;13;13;
84223;PMS5003;74353;51.208;0.304;2023-12-07T03:16:13;12;12;
84223;PMS5003;74353;51.208;0.304;2023-12-07T03:18:39;6;6;
84223;PMS5003;74353;51.208;0.304;2023-12-07T03:21:05;9;9;
84223;PMS5003;74353;51.208;0.304;2023-12-07T03:23:30;11;11;
84223;PMS5003;74353;51.208;0.304;2023-12-07T03:25:56;11;11;
84223;PMS5003;74353;51.208;0.304;2023-12-07T03:28:21;11;8;
84223;PMS5003;74353;51.208;0.304;2023-12-07T03:30:47;13;13;
84223;PMS5003;74353;51.208;0.304;2023-12-07T03:33:15;8;8;
84223;PMS5003;74353;51.208;0.304;2023-12-07T03:35:41;6;6;
84223;PMS5003;74353;51.208;0.304;2023-12-07T03:38:06;7;7;
84223;PMS5003;74353;51.208;0.304;2023-12-07T03:40:33;7;7;
84223;PMS5003;74353;51.208;0.304;2023-12-07T03:42:58;13;13;
84223;PMS5003;74353;51.208;0.304;2023-12-07T03:45:24;14;11;
84223;PMS5003;74353;51.208;0.304;2023-12-07T03:47:50;10;10;
84223;PMS5003;74353;51.208;0.304;2023-12-07T03:50:16;5;5;
84223;PMS5003;74353;51.208;0.304;2023-12-07T03:52:41;9;9;
84223;PMS5003;74353;51.208;0.304;2023-12-07T03:55:08;7;7;
84223;PMS5003;74353;51.208;0.304;2023-12-07T03:57:33;9;9;
84223;PMS5003;74353;51.208;0.304;2023-12-07T03:59:59;5;5;
84223;PMS5003;74353;51.208;0.304;2023-12-07T04:02:29;4;4;
84223;PMS5003;74353;51.208;0.304;2023-12-07T04:04:54;8;6;
84223;PMS5003;74353;51.208;0.304;2023-12-07T04:07:19;9;8;
84223;PMS5003;74353;51.208;0.304;2023-12-07T04:09:45;8;8;
84223;PMS5003;74353;51.208;0.304;2023-12-07T04:12:12;5;5;
84223;PMS5003;74353;51.208;0.304;2023-12-07T04:14:38;6;6;
84223;PMS5003;74353;51.208;0.304;2023-12-07T04:17:05;7;7;
84223;PMS5003;74353;51.208;0.304;2023-12-07T04:19:30;5;5;
84223;PMS5003;74353;51.208;0.304;2023-12-07T04:21:57;10;10;
84223;PMS5003;74353;51.208;0.304;2023-12-07T04:24:24;10;10;
84223;PMS5003;74353;51.208;0.304;2023-12-07T04:26:50;10;10;
84223;PMS5003;74353;51.208;0.304;2023-12-07T04:29:18;10;10;
84223;PMS5003;74353;51.208;0.304;2023-12-07T04:31:45;9;9;
84223;PMS5003;74353;51.208;0.304;2023-12-07T04:34:13;4;4;
84223;PMS5003;74353;51.208;0.304;2023-12-07T04:36:38;9;9;
84223;PMS5003;74353;51.208;0.304;2023-12-07T04:39:05;16;11;
84223;PMS5003;74353;51.208;0.304;2023-12-07T04:41:31;11;10;
84223;PMS5003;74353;51.208;0.304;2023-12-07T04:43:56;11;11;
84223;PMS5003;74353;51.208;0.304;2023-12-07T04:46:24;4;4;
84223;PMS5003;74353;51.208;0.304;2023-12-07T04:48:50;8;7;
84223;PMS5003;74353;51.208;0.304;2023-12-07T04:51:16;4;4;
84223;PMS5003;74353;51.208;0.304;2023-12-07T04:53:43;8;8;
84223;PMS5003;74353;51.208;0.304;2023-12-07T04:56:09;7;7;
84223;PMS5003;74353;51.208;0.304;2023-12-07T04:58:34;5;5;
84223;PMS5003;74353;51.208;0.304;2023-12-07T05:01:00;10;8;
84223;PMS5003;74353;51.208;0.304;2023-12-07T05:03:26;9;6;
84223;PMS5003;74353;51.208;0.304;2023-12-07T05:05:53;5;5;
84223;PMS5003;74353;51.208;0.304;2023-12-07T05:08:19;4;4;
84223;PMS5003;74353;51.208;0.304;2023-12-07T05:10:45;6;6;
84223;PMS5003;74353;51.208;0.304;2023-12-07T05:13:13;11;11;
84223;PMS5003;74353;51.208;0.304;2023-12-07T05:15:39;10;10;
84223;PMS5003;74353;51.208;0.304;2023-12-07T05:18:05;13;13;
84223;PMS5003;74353;51.208;0.304;2023-12-07T05:20:32;9;9;
84223;PMS5003;74353;51.208;0.304;2023-12-07T05:22:59;7;7;
84223;PMS5003;74353;51.208;0.304;2023-12-07T05:25:24;8;4;
84223;PMS5003;74353;51.208;0.304;2023-12-07T05:27:50;6;6;
84223;PMS5003;74353;51.208;0.304;2023-12-07T05:30:16;14;10;
84223;PMS5003;74353;51.208;0.304;2023-12-07T05:32:43;15;9;
84223;PMS5003;74353;51.208;0.304;2023-12-07T05:35:09;12;12;
84223;PMS5003;74353;51.208;0.304;2023-12-07T05:37:35;8;8;
84223;PMS5003;74353;51.208;0.304;2023-12-07T05:40:00;10;10;
84223;PMS5003;74353;51.208;0.304;2023-12-07T05:42:27;5;5;
84223;PMS5003;74353;51.208;0.304;2023-12-07T05:44:52;18;18;
84223;PMS5003;74353;51.208;0.304;2023-12-07T05:47:18;6;6;
84223;PMS5003;74353;51.208;0.304;2023-12-07T05:49:44;18;18;
84223;PMS5003;74353;51.208;0.304;2023-12-07T05:52:10;18;13;
84223;PMS5003;74353;51.208;0.304;2023-12-07T05:54:35;6;6;
84223;PMS5003;74353;51.208;0.304;2023-12-07T05:57:02;9;9;
84223;PMS5003;74353;51.208;0.304;2023-12-07T05:59:29;15;15;
84223;PMS5003;74353;51.208;0.304;2023-12-07T06:01:55;22;12;
84223;PMS5003;74353;51.208;0.304;2023-12-07T06:04:21;10;10;
84223;PMS5003;74353;51.208;0.304;2023-12-07T06:06:47;32;26;
84223;PMS5003;74353;51.208;0.304;2023-12-07T06:09:15;17;17;
84223;PMS5003;74353;51.208;0.304;2023-12-07T06:11:40;16;16;
84223;PMS5003;74353;51.208;0.304;2023-12-07T06:14:06;16;16;
84223;PMS5003;74353;51.208;0.304;2023-12-07T06:16:31;20;20;
84223;PMS5003;74353;51.208;0.304;2023-12-07T06:18:59;6;6;
84223;PMS5003;74353;51.208;0.304;2023-12-07T06:21:25;13;13;
84223;PMS5003;74353;51.208;0.304;2023-12-07T06:23:54;19;15;
84223;PMS5003;74353;51.208;0.304;2023-12-07T06:26:20;7;7;
84223;PMS5003;74353;51.208;0.304;2023-12-07T06:28:47;15;15;
84223;PMS5003;74353;51.208;0.304;2023-12-07T06:31:13;20;12;
84223;PMS5003;74353;51.208;0.304;2023-12-07T06:33:40;13;13;
84223;PMS5003;74353;51.208;0.304;2023-12-07T06:36:07;13;13;
84223;PMS5003;74353;51.208;0.304;2023-12-07T06:38:32;14;13;
84223;PMS5003;74353;51.208;0.304;2023-12-07T06:40:59;9;9;
84223;PMS5003;74353;51.208;0.304;2023-12-07T06:43:25;19;15;
84223;PMS5003;74353;51.208;0.304;2023-12-07T06:45:51;17;11;
84223;PMS5003;74353;51.208;0.304;2023-12-07T06:48:20;6;6;
84223;PMS5003;74353;51.208;0.304;2023-12-07T06:50:51;7;7;
84223;PMS5003;74353;51.208;0.304;2023-12-07T06:53:16;12;11;
84223;PMS5003;74353;51.208;0.304;2023-12-07T06:55:43;13;13;
84223;PMS5003;74353;51.208;0.304;2023-12-07T06:58:10;14;14;
84223;PMS5003;74353;51.208;0.304;2023-12-07T07:00:36;12;12;
84223;PMS5003;74353;51.208;0.304;2023-12-07T07:03:03;9;9;
84223;PMS5003;74353;51.208;0.304;2023-12-07T07:05:29;9;9;
84223;PMS5003;74353;51.208;0.304;2023-12-07T07:07:55;13;13;
84223;PMS5003;74353;51.208;0.304;2023-12-07T07:10:20;11;11;
84223;PMS5003;74353;51.208;0.304;2023-12-07T07:12:45;13;13;
84223;PMS5003;74353;51.208;0.304;2023-12-07T07:15:13;10;10;
84223;PMS5003;74353;51.208;0.304;2023-12-07T07:17:40;13;13;
84223;PMS5003;74353;51.208;0.304;2023-12-07T07:20:12;5;5;
84223;PMS5003;74353;51.208;0.304;2023-12-07T07:22:39;12;12;
84223;PMS5003;74353;51.208;0.304;2023-12-07T07:25:07;7;7;
84223;PMS5003;74353;51.208;0.304;2023-12-07T07:27:32;10;10;
84223;PMS5003;74353;51.208;0.304;2023-12-07T07:29:57;12;12;
84223;PMS5003;74353;51.208;0.304;2023-12-07T07:32:26;10;10;
84223;PMS5003;74353;51.208;0.304;2023-12-07T07:34:51;2;2;
84223;PMS5003;74353;51.208;0.304;2023-12-07T07:37:19;5;5;
84223;PMS5003;74353;51.208;0.304;2023-12-07T07:39:45;12;9;
84223;PMS5003;74353;51.208;0.304;2023-12-07T07:42:11;8;8;
84223;PMS5003;74353;51.208;0.304;2023-12-07T07:44:37;6;6;
84223;PMS5003;74353;51.208;0.304;2023-12-07T07:47:05;7;7;
84223;PMS5003;74353;51.208;0.304;2023-12-07T07:49:30;6;6;
84223;PMS5003;74353;51.208;0.304;2023-12-07T07:51:56;12;10;
84223;PMS5003;74353;51.208;0.304;2023-12-07T07:54:23;12;12;
84223;PMS5003;74353;51.208;0.304;2023-12-07T07:56:49;12;10;
84223;PMS5003;74353;51.208;0.304;2023-12-07T07:59:16;10;10;
84223;PMS5003;74353;51.208;0.304;2023-12-07T08:01:45;9;9;
84223;PMS5003;74353;51.208;0.304;2023-12-07T08:04:09;12;12;
84223;PMS5003;74353;51.208;0.304;2023-12-07T08:06:34;6;6;
84223;PMS5003;74353;51.208;0.304;2023-12-07T08:09:00;13;11;
84223;PMS5003;74353;51.208;0.304;2023-12-07T08:11:27;15;15;
84223;PMS5003;74353;51.208;0.304;2023-12-07T08:13:53;11;10;
84223;PMS5003;74353;51.208;0.304;2023-12-07T08:16:18;10;10;
84223;PMS5003;74353;51.208;0.304;2023-12-07T08:18:44;6;6;
84223;PMS5003;74353;51.208;0.304;2023-12-07T08:23:37;8;8;
84223;PMS5003;74353;51.208;0.304;2023-12-07T08:26:05;7;7;
84223;PMS5003;74353;51.208;0.304;2023-12-07T08:28:31;7;7;
84223;PMS5003;74353;51.208;0.304;2023-12-07T08:30:57;11;11;
84223;PMS5003;74353;51.208;0.304;2023-12-07T08:33:25;5;5;
84223;PMS5003;74353;51.208;0.304;2023-12-07T08:35:55;8;8;
84223;PMS5003;74353;51.208;0.304;2023-12-07T08:38:20;5;5;
84223;PMS5003;74353;51.208;0.304;2023-12-07T08:40:51;5;5;
84223;PMS5003;74353;51.208;0.304;2023-12-07T08:43:16;13;13;
84223;PMS5003;74353;51.208;0.304;2023-12-07T08:45:41;6;6;
84223;PMS5003;74353;51.208;0.304;2023-12-07T08:48:07;9;9;
84223;PMS5003;74353;51.208;0.304;2023-12-07T08:50:32;9;9;
84223;PMS5003;74353;51.208;0.304;2023-12-07T08:53:02;20;20;
84223;PMS5003;74353;51.208;0.304;2023-12-07T08:55:29;9;8;
84223;PMS5003;74353;51.208;0.304;2023-12-07T08:57:55;11;11;
84223;PMS5003;74353;51.208;0.304;2023-12-07T09:00:21;9;7;
84223;PMS5003;74353;51.208;0.304;2023-12-07T09:02:49;9;9;
84223;PMS5003;74353;51.208;0.304;2023-12-07T09:05:14;11;11;
84223;PMS5003;74353;51.208;0.304;2023-12-07T09:07:40;7;7;
84223;PMS5003;74353;51.208;0.304;2023-12-07T09:10:07;3;3;
84223;PMS5003;74353;51.208;0.304;2023-12-07T09:12:32;8;8;
84223;PMS5003;74353;51.208;0.304;2023-12-07T09:14:57;10;10;
84223;PMS5003;74353;51.208;0.304;2023-12-07T09:17:23;12;12;
84223;PMS5003;74353;51.208;0.304;2023-12-07T09:19:49;11;11;
84223;PMS5003;74353;51.208;0.304;2023-12-07T09:22:17;6;6;
84223;PMS5003;74353;51.208;0.304;2023-12-07T09:24:43;4;4;
84223;PMS5003;74353;51.208;0.304;2023-12-07T09:27:08;10;10;
84223;PMS5003;74353;51.208;0.304;2023-12-07T09:29:34;10;10;
84223;PMS5003;74353;51.208;0.304;2023-12-07T09:32:03;8;8;
84223;PMS5003;74353;51.208;0.304;2023-12-07T09:34:32;9;9;
84223;PMS5003;74353;51.208;0.304;2023-12-07T09:37:05;6;6;
84223;PMS5003;74353;51.208;0.304;2023-12-07T09:39:22;8;8;
84223;PMS5003;74353;51.208;0.304;2023-12-07T09:41:50;9;9;
84223;PMS5003;74353;51.208;0.304;2023-12-07T09:44:16;21;13;
84223;PMS5003;74353;51.208;0.304;2023-12-07T09:46:41;21;9;
84223;PMS5003;74353;51.208;0.304;2023-12-07T09:49:09;6;6;
84223;PMS5003;74353;51.208;0.304;2023-12-07T09:51:38;6;6;
84223;PMS5003;74353;51.208;0.304;2023-12-07T09:54:06;6;6;
84223;PMS5003;74353;51.208;0.304;2023-12-07T09:56:33;9;9;
84223;PMS5003;74353;51.208;0.304;2023-12-07T09:58:58;25;25;
84223;PMS5003;74353;51.208;0.304;2023-12-07T10:01:27;9;9;
84223;PMS5003;74353;51.208;0.304;2023-12-07T10:06:20;13;7;
84223;PMS5003;74353;51.208;0.304;2023-12-07T10:08:45;11;10;
84223;PMS5003;74353;51.208;0.304;2023-12-07T10:11:11;9;9;
84223;PMS5003;74353;51.208;0.304;2023-12-07T10:13:39;2;2;
84223;PMS5003;74353;51.208;0.304;2023-12-07T10:16:08;3;3;
84223;PMS5003;74353;51.208;0.304;2023-12-07T10:18:35;11;11;
84223;PMS5003;74353;51.208;0.304;2023-12-07T10:21:03;14;11;
84223;PMS5003;74353;51.208;0.304;2023-12-07T10:23:29;9;7;
84223;PMS5003;74353;51.208;0.304;2023-12-07T10:25:57;7;7;
84223;PMS5003;74353;51.208;0.304;2023-12-07T10:28:22;6;6;
84223;PMS5003;74353;51.208;0.304;2023-12-07T10:30:48;12;10;
84223;PMS5003;74353;51.208;0.304;2023-12-07T10:33:13;9;7;
84223;PMS5003;74353;51.208;0.304;2023-12-07T10:35:39;11;11;
84223;PMS5003;74353;51.208;0.304;2023-12-07T10:38:05;11;10;
84223;PMS5003;74353;51.208;0.304;2023-12-07T10:40:32;8;8;
84223;PMS5003;74353;51.208;0.304;2023-12-07T10:42:57;8;8;
84223;PMS5003;74353;51.208;0.304;2023-12-07T10:45:24;8;8;
84223;PMS5003;74353;51.208;0.304;2023-12-07T10:47:49;11;9;
84223;PMS5003;74353;51.208;0.304;2023-12-07T10:50:16;5;5;
84223;PMS5003;74353;51.208;0.304;2023-12-07T10:52:44;6;6;
84223;PMS5003;74353;51.208;0.304;2023-12-07T10:55:11;12;12;
84223;PMS5003;74353;51.208;0.304;2023-12-07T10:57:35;8;8;
84223;PMS5003;74353;51.208;0.304;2023-12-07T11:00:03;9;6;
84223;PMS5003;74353;51.208;0.304;2023-12-07T11:02:32;6;6;
84223;PMS5003;74353;51.208;0.304;2023-12-07T11:04:59;2;2;
84223;PMS5003;74353;51.208;0.304;2023-12-07T11:07:27;9;9;
84223;PMS5003;74353;51.208;0.304;2023-12-07T11:09:58;6;6;
84223;PMS5003;74353;51.208;0.304;2023-12-07T11:12:24;12;10;
84223;PMS5003;74353;51.208;0.304;2023-12-07T11:14:49;7;7;
84223;PMS5003;74353;51.208;0.304;2023-12-07T11:17:15;13;13;
84223;PMS5003;74353;51.208;0.304;2023-12-07T11:19:43;10;10;
84223;PMS5003;74353;51.208;0.304;2023-12-07T11:22:09;5;5;
84223;PMS5003;74353;51.208;0.304;2023-12-07T11:24:34;6;6;
84223;PMS5003;74353;51.208;0.304;2023-12-07T11:27:00;14;10;
84223;PMS5003;74353;51.208;0.304;2023-12-07T11:29:28;11;9;
84223;PMS5003;74353;51.208;0.304;2023-12-07T11:31:55;8;8;
84223;PMS5003;74353;51.208;0.304;2023-12-07T11:36:45;7;7;
84223;PMS5003;74353;51.208;0.304;2023-12-07T11:39:15;10;9;
84223;PMS5003;74353;51.208;0.304;2023-12-07T11:41:35;8;8;
84223;PMS5003;74353;51.208;0.304;2023-12-07T11:44:02;7;7;
84223;PMS5003;74353;51.208;0.304;2023-12-07T11:46:29;8;8;
84223;PMS5003;74353;51.208;0.304;2023-12-07T11:48:54;9;9;
84223;PMS5003;74353;51.208;0.304;2023-12-07T11:51:21;5;5;
84223;PMS5003;74353;51.208;0.304;2023-12-07T11:53:48;8;8;
84223;PMS5003;74353;51.208;0.304;2023-12-07T11:56:15;16;16;
84223;PMS5003;74353;51.208;0.304;2023-12-07T11:58:41;3;3;
84223;PMS5003;74353;51.208;0.304;2023-12-07T12:01:08;22;7;
84223;PMS5003;74353;51.208;0.304;2023-12-07T12:03:36;9;9;
84223;PMS5003;74353;51.208;0.304;2023-12-07T12:06:03;9;9;
84223;PMS5003;74353;51.208;0.304;2023-12-07T12:08:33;6;6;
84223;PMS5003;74353;51.208;0.304;2023-12-07T12:10:58;8;7;
84223;PMS5003;74353;51.208;0.304;2023-12-07T12:13:26;4;4;
84223;PMS5003;74353;51.208;0.304;2023-12-07T12:15:51;12;10;
84223;PMS5003;74353;51.208;0.304;2023-12-07T12:18:17;7;7;
84223;PMS5003;74353;51.208;0.304;2023-12-07T12:20:44;8;8;
84223;PMS5003;74353;51.208;0.304;2023-12-07T12:23:09;6;4;
84223;PMS5003;74353;51.208;0.304;2023-12-07T12:25:35;4;4;
84223;PMS5003;74353;51.208;0.304;2023-12-07T12:28:02;4;4;
84223;PMS5003;74353;51.208;0.304;2023-12-07T12:30:28;4;4;
84223;PMS5003;74353;51.208;0.304;2023-12-07T12:32:55;6;6;
84223;PMS5003;74353;51.208;0.304;2023-12-07T12:35:19;4;4;
84223;PMS5003;74353;51.208;0.304;2023-12-07T12:37:46;7;7;
84223;PMS5003;74353;51.208;0.304;2023-12-07T12:40:11;9;9;
84223;PMS5003;74353;51.208;0.304;2023-12-07T12:42:36;8;8;
84223;PMS5003;74353;51.208;0.304;2023-12-07T12:45:05;5;5;
84223;PMS5003;74353;51.208;0.304;2023-12-07T12:47:30;6;6;
84223;PMS5003;74353;51.208;0.304;2023-12-07T12:49:56;7;7;
84223;PMS5003;74353;51.208;0.304;2023-12-07T12:52:24;5;5;
84223;PMS5003;74353;51.208;0.304;2023-12-07T12:54:50;4;4;
84223;PMS5003;74353;51.208;0.304;2023-12-07T12:57:16;5;5;
84223;PMS5003;74353;51.208;0.304;2023-12-07T12:59:44;6;6;
84223;PMS5003;74353;51.208;0.304;2023-12-07T13:02:12;5;5;
84223;PMS5003;74353;51.208;0.304;2023-12-07T13:04:39;4;4;
84223;PMS5003;74353;51.208;0.304;2023-12-07T13:07:04;6;6;
84223;PMS5003;74353;51.208;0.304;2023-12-07T13:09:30;4;4;
84223;PMS5003;74353;51.208;0.304;2023-12-07T13:11:57;5;5;
84223;PMS5003;74353;51.208;0.304;2023-12-07T13:14:24;2;2;
84223;PMS5003;74353;51.208;0.304;2023-12-07T13:16:50;7;6;
84223;PMS5003;74353;51.208;0.304;2023-12-07T13:19:16;5;5;
84223;PMS5003;74353;51.208;0.304;2023-12-07T13:21:41;8;8;
84223;PMS5003;74353;51.208;0.304;2023-12-07T13:24:07;3;3;
84223;PMS5003;74353;51.208;0.304;2023-12-07T13:26:33;7;7;
84223;PMS5003;74353;51.208;0.304;2023-12-07T13:29:02;7;7;
84223;PMS5003;74353;51.208;0.304;2023-12-07T13:31:29;1;1;
84223;PMS5003;74353;51.208;0.304;2023-12-07T13:33:54;7;7;
84223;PMS5003;74353;51.208;0.304;2023-12-07T13:36:22;4;4;
84223;PMS5003;74353;51.208;0.304;2023-12-07T13:38:48;6;6;
84223;PMS5003;74353;51.208;0.304;2023-12-07T13:41:14;4;4;
84223;PMS5003;74353;51.208;0.304;2023-12-07T13:43:42;6;6;
84223;PMS5003;74353;51.208;0.304;2023-12-07T13:46:09;4;4;
84223;PMS5003;74353;51.208;0.304;2023-12-07T13:48:35;2;2;
84223;PMS5003;74353;51.208;0.304;2023-12-07T13:51:00;5;5;
84223;PMS5003;74353;51.208;0.304;2023-12-07T13:53:26;8;8;
84223;PMS5003;74353;51.208;0.304;2023-12-07T13:55:51;5;5;
84223;PMS5003;74353;51.208;0.304;2023-12-07T13:58:16;7;7;
84223;PMS5003;74353;51.208;0.304;2023-12-07T14:00:44;0;0;
84223;PMS5003;74353;51.208;0.304;2023-12-07T14:03:09;5;5;
84223;PMS5003;74353;51.208;0.304;2023-12-07T14:05:34;14;14;
84223;PMS5003;74353;51.208;0.304;2023-12-07T14:07:59;4;4;
84223;PMS5003;74353;51.208;0.304;2023-12-07T14:10:27;6;6;
84223;PMS5003;74353;51.208;0.304;2023-12-07T14:12:52;6;6;
84223;PMS5003;74353;51.208;0.304;2023-12-07T14:15:20;6;6;
84223;PMS5003;74353;51.208;0.304;2023-12-07T14:17:46;5;5;
84223;PMS5003;74353;51.208;0.304;2023-12-07T14:20:14;1;1;
84223;PMS5003;74353;51.208;0.304;2023-12-07T14:22:40;5;5;
84223;PMS5003;74353;51.208;0.304;2023-12-07T14:25:09;7;7;
84223;PMS5003;74353;51.208;0.304;2023-12-07T14:27:34;6;6;
84223;PMS5003;74353;51.208;0.304;2023-12-07T14:30:02;8;8;
84223;PMS5003;74353;51.208;0.304;2023-12-07T14:32:29;7;7;
84223;PMS5003;74353;51.208;0.304;2023-12-07T14:34:54;4;4;
84223;PMS5003;74353;51.208;0.304;2023-12-07T14:37:20;7;7;
84223;PMS5003;74353;51.208;0.304;2023-12-07T14:39:45;17;7;
84223;PMS5003;74353;51.208;0.304;2023-12-07T14:42:17;9;9;
84223;PMS5003;74353;51.208;0.304;2023-12-07T14:44:37;9;9;
84223;PMS5003;74353;51.208;0.304;2023-12-07T14:47:04;8;8;
84223;PMS5003;74353;51.208;0.304;2023-12-07T14:49:29;1;1;
84223;PMS5003;74353;51.208;0.304;2023-12-07T14:52:02;7;4;
84223;PMS5003;74353;51.208;0.304;2023-12-07T14:54:22;7;7;
84223;PMS5003;74353;51.208;0.304;2023-12-07T14:56:48;5;5;
84223;PMS5003;74353;51.208;0.304;2023-12-07T14:59:13;8;8;
84223;PMS5003;74353;51.208;0.304;2023-12-07T15:01:40;8;8;
84223;PMS5003;74353;51.208;0.304;2023-12-07T15:04:06;7;7;
84223;PMS5003;74353;51.208;0.304;2023-12-07T15:06:32;5;5;
84223;PMS5003;74353;51.208;0.304;2023-12-07T15:08:57;7;7;
84223;PMS5003;74353;51.208;0.304;2023-12-07T15:11:23;4;4;
84223;PMS5003;74353;51.208;0.304;2023-12-07T15:13:50;6;6;
84223;PMS5003;74353;51.208;0.304;2023-12-07T15:16:18;4;4;
84223;PMS5003;74353;51.208;0.304;2023-12-07T15:18:44;7;6;
84223;PMS5003;74353;51.208;0.304;2023-12-07T15:21:12;5;5;
84223;PMS5003;74353;51.208;0.304;2023-12-07T15:23:38;8;8;
84223;PMS5003;74353;51.208;0.304;2023-12-07T15:26:05;3;3;
84223;PMS5003;74353;51.208;0.304;2023-12-07T15:28:32;14;14;
84223;PMS5003;74353;51.208;0.304;2023-12-07T15:30:58;4;4;
84223;PMS5003;74353;51.208;0.304;2023-12-07T15:33:23;7;7;
84223;PMS5003;74353;51.208;0.304;2023-12-07T15:35:49;11;11;
84223;PMS5003;74353;51.208;0.304;2023-12-07T15:38:15;5;5;
84223;PMS5003;74353;51.208;0.304;2023-12-07T15:40:42;4;4;
84223;PMS5003;74353;51.208;0.304;2023-12-07T15:43:09;7;7;
84223;PMS5003;74353;51.208;0.304;2023-12-07T15:45:36;6;6;
84223;PMS5003;74353;51.208;0.304;2023-12-07T15:48:02;4;4;
84223;PMS5003;74353;51.208;0.304;2023-12-07T15:50:29;8;8;
84223;PMS5003;74353;51.208;0.304;2023-12-07T15:52:54;6;6;
84223;PMS5003;74353;51.208;0.304;2023-12-07T15:55:21;2;2;
84223;PMS5003;74353;51.208;0.304;2023-12-07T15:57:47;9;7;
84223;PMS5003;74353;51.208;0.304;2023-12-07T16:00:14;3;3;
84223;PMS5003;74353;51.208;0.304;2023-12-07T16:02:38;7;7;
84223;PMS5003;74353;51.208;0.304;2023-12-07T16:05:04;5;5;
84223;PMS5003;74353;51.208;0.304;2023-12-07T16:07:37;10;10;
84223;PMS5003;74353;51.208;0.304;2023-12-07T16:10:05;8;8;
84223;PMS5003;74353;51.208;0.304;2023-12-07T16:12:33;11;11;
84223;PMS5003;74353;51.208;0.304;2023-12-07T16:14:59;7;7;
84223;PMS5003;74353;51.208;0.304;2023-12-07T16:17:27;5;5;
84223;PMS5003;74353;51.208;0.304;2023-12-07T16:19:53;4;4;
84223;PMS5003;74353;51.208;0.304;2023-12-07T16:22:22;6;6;
84223;PMS5003;74353;51.208;0.304;2023-12-07T16:24:49;3;3;
84223;PMS5003;74353;51.208;0.304;2023-12-07T16:27:15;3;3;
84223;PMS5003;74353;51.208;0.304;2023-12-07T16:29:42;4;4;
84223;PMS5003;74353;51.208;0.304;2023-12-07T16:32:07;11;5;
84223;PMS5003;74353;51.208;0.304;2023-12-07T16:34:33;20;16;
84223;PMS5003;74353;51.208;0.304;2023-12-07T16:36:58;9;9;
84223;PMS5003;74353;51.208;0.304;2023-12-07T16:39:24;9;9;
84223;PMS5003;74353;51.208;0.304;2023-12-07T16:41:50;15;9;
84223;PMS5003;74353;51.208;0.304;2023-12-07T16:44:16;8;5;
84223;PMS5003;74353;51.208;0.304;2023-12-07T16:46:42;9;9;